Time;durP1;ratioP1;P1;durP2;ratioP2;P2;SDS_P1;SDS_P2;PMS_P1;PMS_P2;Temp;Humidity;BMP_temperature;BMP_pressure;BME280_temperature;BME280_humidity;BME280_pressure;Samples;Min_cycle;Max_cycle;Signal;HPM_P1;HPM_P2
2022/10/28 00:02:16;;;;;;;10.23;4.40;;;20.10;74.20;21.20;101076.00;;;;5090426;28;20186;-47
2022/10/28 00:04:42;;;;;;;9.03;4.47;;;20.10;74.10;21.10;101092.00;;;;5088421;28;20279;-47
2022/10/28 00:07:08;;;;;;;11.67;5.00;;;20.10;74.10;21.10;101088.00;;;;5090006;28;20579;-47
2022/10/28 00:09:33;;;;;;;7.53;3.97;;;20.10;74.00;21.10;101091.00;;;;5089450;28;20196;-47
2022/10/28 00:11:59;;;;;;;8.03;4.07;;;20.00;74.00;21.10;101084.00;;;;5090036;28;20183;-46
2022/10/28 00:14:25;;;;;;;12.23;4.50;;;20.00;74.00;21.10;101073.00;;;;5089586;28;20188;-48
2022/10/28 00:16:51;;;;;;;9.57;5.13;;;20.10;73.90;21.20;101070.00;;;;5089904;28;20523;-46
2022/10/28 00:19:16;;;;;;;6.10;4.23;;;20.00;73.70;21.10;101064.00;;;;5089537;28;20729;-46
2022/10/28 00:21:43;;;;;;;7.30;4.30;;;20.00;73.80;21.10;101075.00;;;;5089264;28;20188;-47
2022/10/28 00:24:09;;;;;;;9.63;5.00;;;20.00;73.90;21.10;101069.00;;;;5089712;28;20211;-47
2022/10/28 00:26:37;;;;;;;9.37;4.30;;;20.00;73.80;21.10;101073.00;;;;5089796;28;20195;-48
2022/10/28 00:29:08;;;;;;;6.47;4.10;;;20.00;73.60;21.10;101057.00;;;;5089319;28;20612;-47
2022/10/28 00:31:34;;;;;;;7.67;4.37;;;20.00;73.70;21.10;101067.00;;;;5089588;28;20241;-47
2022/10/28 00:34:02;;;;;;;7.83;4.07;;;20.10;73.90;21.10;101072.00;;;;5089210;28;21000;-47
2022/10/28 00:36:30;;;;;;;10.20;4.50;;;20.00;73.70;21.20;101066.00;;;;5089665;28;20580;-47
2022/10/28 00:38:57;;;;;;;9.10;4.23;;;20.00;73.70;21.20;101068.00;;;;5088403;28;20186;-47
2022/10/28 00:41:35;;;;;;;9.53;4.47;;;20.00;73.60;21.20;101070.00;;;;5089153;28;20173;-47
2022/10/28 00:44:40;;;;;;;8.57;4.13;;;20.00;73.60;21.20;101059.00;;;;5087771;28;20652;-47
2022/10/28 00:47:38;;;;;;;9.63;4.47;;;20.10;73.70;21.10;101059.00;;;;5089790;28;20560;-47
2022/10/28 00:50:44;;;;;;;6.13;3.93;;;20.00;73.50;21.20;101050.00;;;;5102534;28;20197;-48
2022/10/28 00:53:19;;;;;;;5.90;3.83;;;20.00;73.50;21.10;101044.00;;;;5097855;28;20593;-48
2022/10/28 00:55:45;;;;;;;6.43;3.80;;;20.00;73.50;21.10;101047.00;;;;5087911;28;20195;-48
2022/10/28 00:58:11;;;;;;;10.13;4.43;;;20.10;73.50;21.10;101032.00;;;;5087887;28;20789;-48
2022/10/28 01:00:36;;;;;;;8.23;4.20;;;20.00;73.10;21.10;101031.00;;;;5088874;28;20257;-47
2022/10/28 01:03:02;;;;;;;7.67;4.37;;;20.00;73.10;21.10;101038.00;;;;5088777;28;20269;-47
2022/10/28 01:05:29;;;;;;;11.13;4.53;;;20.00;72.90;21.10;101013.00;;;;5088326;28;20313;-48
2022/10/28 01:07:58;;;;;;;8.67;4.50;;;20.00;72.70;21.10;101047.00;;;;5087700;28;20220;-48
2022/10/28 01:10:43;;;;;;;7.13;4.30;;;20.00;72.60;21.10;101049.00;;;;5087280;28;20185;-47
2022/10/28 01:13:40;;;;;;;6.83;4.17;;;20.00;72.70;21.10;101073.00;;;;5087552;28;20156;-48
2022/10/28 01:16:36;;;;;;;8.70;4.20;;;20.10;72.70;21.10;101064.00;;;;5087482;28;20278;-47
2022/10/28 01:19:45;;;;;;;9.70;4.00;;;20.10;72.80;21.10;101064.00;;;;5088553;28;20233;-48
2022/10/28 01:22:48;;;;;;;7.23;4.23;;;20.10;72.80;21.10;101063.00;;;;5088370;28;20157;-48
2022/10/28 01:25:58;;;;;;;8.33;4.10;;;20.00;72.80;21.10;101060.00;;;;5086910;28;20187;-47
2022/10/28 01:28:54;;;;;;;9.33;4.03;;;20.10;72.80;21.10;101036.00;;;;5050231;28;20186;-48
2022/10/28 01:31:48;;;;;;;11.30;4.30;;;20.10;72.70;21.10;101029.00;;;;5089131;28;20637;-47
2022/10/28 01:34:48;;;;;;;5.77;3.90;;;20.10;72.60;21.10;101031.00;;;;5087518;28;20163;-48
2022/10/28 01:37:38;;;;;;;8.27;4.07;;;20.10;72.40;21.10;101028.00;;;;5088224;28;20267;-47
2022/10/28 01:40:15;;;;;;;9.53;4.17;;;20.10;72.40;21.10;101003.00;;;;5056900;28;20205;-50
2022/10/28 01:42:57;;;;;;;13.77;4.57;;;20.10;72.30;21.10;101021.00;;;;5087219;28;20176;-48
2022/10/28 01:45:45;;;;;;;9.10;4.13;;;20.10;72.40;21.10;101031.00;;;;5086948;28;20267;-47
2022/10/28 01:48:18;;;;;;;8.27;3.70;;;20.00;72.30;21.10;101045.00;;;;5087399;28;20625;-47
2022/10/28 01:51:08;;;;;;;6.57;4.00;;;20.00;72.00;21.10;101045.00;;;;5086862;28;20671;-48
2022/10/28 01:53:36;;;;;;;6.60;4.10;;;20.10;72.10;21.10;101038.00;;;;5086622;28;20271;-48
2022/10/28 01:56:07;;;;;;;5.30;3.80;;;20.00;72.10;21.10;101026.00;;;;5086471;28;20177;-47
2022/10/28 01:58:32;;;;;;;9.80;4.17;;;20.10;72.10;21.10;101030.00;;;;5070294;28;20181;-47
2022/10/28 02:00:58;;;;;;;7.17;4.40;;;20.10;72.10;21.10;101029.00;;;;5096976;28;20199;-47
2022/10/28 02:03:25;;;;;;;6.20;4.40;;;20.10;72.10;21.10;101041.00;;;;5100421;28;20177;-47
2022/10/28 02:05:52;;;;;;;7.87;4.10;;;20.10;72.10;21.10;101047.00;;;;5088727;28;20232;-47
2022/10/28 02:08:36;;;;;;;9.63;3.83;;;20.10;72.20;21.10;101046.00;;;;5090857;28;20177;-47
2022/10/28 02:11:20;;;;;;;6.03;3.87;;;20.10;72.20;21.10;101041.00;;;;5091011;28;20739;-47
2022/10/28 02:14:28;;;;;;;8.90;4.30;;;20.10;72.10;21.20;101041.00;;;;5091973;28;20176;-48
2022/10/28 02:17:11;;;;;;;7.37;4.20;;;20.10;72.10;21.10;101031.00;;;;5090793;28;20186;-46
2022/10/28 02:20:33;;;;;;;11.00;4.10;;;20.10;71.90;21.10;101022.00;;;;5090527;28;20243;-47
2022/10/28 02:23:41;;;;;;;8.23;3.90;;;20.10;72.10;21.10;101020.00;;;;5091948;28;20280;-47
2022/10/28 02:26:20;;;;;;;8.63;4.33;;;20.00;72.00;21.10;101017.00;;;;5090967;28;20226;-46
2022/10/28 02:29:19;;;;;;;6.90;4.20;;;20.10;72.10;21.10;101014.00;;;;5092327;28;20537;-46
2022/10/28 02:31:56;;;;;;;8.67;3.90;;;20.10;72.10;21.10;101017.00;;;;5090927;28;20640;-47
2022/10/28 02:34:30;;;;;;;7.60;4.10;;;20.00;72.00;21.10;101023.00;;;;5091158;28;20161;-48
2022/10/28 02:36:56;;;;;;;6.87;3.93;;;20.10;72.10;21.10;101013.00;;;;5091150;28;20743;-47
2022/10/28 02:39:37;;;;;;;5.90;4.07;;;20.10;72.10;21.10;101016.00;;;;5092019;28;20259;-47
2022/10/28 02:42:24;;;;;;;6.43;4.20;;;20.10;72.00;21.10;101019.00;;;;5091272;28;20185;-47
2022/10/28 02:44:59;;;;;;;6.20;4.00;;;20.10;71.90;21.10;101026.00;;;;5092051;28;20199;-47
2022/10/28 02:47:27;;;;;;;6.60;3.90;;;20.00;71.70;21.10;101032.00;;;;5090958;28;20153;-47
2022/10/28 02:49:58;;;;;;;5.33;3.73;;;20.10;71.90;21.10;101021.00;;;;5090234;28;20189;-48
2022/10/28 02:52:24;;;;;;;6.53;4.13;;;20.00;71.80;21.10;101026.00;;;;5090180;28;20350;-48
2022/10/28 02:54:54;;;;;;;7.07;4.00;;;20.10;72.00;21.10;101025.00;;;;5089769;28;20173;-47
2022/10/28 02:57:37;;;;;;;8.40;4.17;;;20.10;72.00;21.20;101001.00;;;;5090293;28;20175;-47
2022/10/28 03:00:14;;;;;;;7.13;3.77;;;20.00;72.00;21.10;101020.00;;;;5090006;28;20212;-47
2022/10/28 03:02:39;;;;;;;10.93;4.17;;;20.00;72.00;21.10;101019.00;;;;5092023;28;20252;-52
2022/10/28 03:05:05;;;;;;;7.40;4.30;;;20.00;72.00;21.10;101016.00;;;;5089849;28;20222;-47
2022/10/28 03:07:31;;;;;;;6.43;4.20;;;20.00;71.80;21.10;101021.00;;;;5089965;28;20634;-48
2022/10/28 03:09:57;;;;;;;7.13;3.90;;;20.00;71.80;21.10;101009.00;;;;5091267;28;20199;-46
2022/10/28 03:12:22;;;;;;;9.67;4.23;;;20.00;71.80;21.10;101014.00;;;;5091627;28;20181;-46
2022/10/28 03:14:48;;;;;;;9.17;4.43;;;20.00;72.30;21.10;101000.00;;;;5091416;28;20192;-46
2022/10/28 03:17:14;;;;;;;7.20;4.13;;;20.00;71.60;21.10;101015.00;;;;5090488;28;20200;-47
2022/10/28 03:19:39;;;;;;;7.13;4.10;;;20.00;71.60;21.10;101007.00;;;;5090708;28;20819;-47
2022/10/28 03:22:05;;;;;;;9.43;4.17;;;20.00;71.60;21.10;101017.00;;;;5090666;28;20230;-48
2022/10/28 03:24:31;;;;;;;8.07;4.03;;;20.00;71.60;21.10;101009.00;;;;5092225;28;20807;-48
2022/10/28 03:26:57;;;;;;;8.43;4.10;;;20.00;71.60;21.20;101011.00;;;;5103810;28;20221;-47
2022/10/28 03:29:22;;;;;;;10.83;4.27;;;20.10;72.10;21.10;100932.00;;;;5078021;28;20196;-47
2022/10/28 03:31:48;;;;;;;11.63;3.90;;;20.10;71.90;21.10;101008.00;;;;5091410;28;20668;-47
2022/10/28 03:34:14;;;;;;;10.37;4.57;;;20.10;71.70;21.10;101000.00;;;;5090520;28;20173;-47
2022/10/28 03:36:39;;;;;;;10.07;3.93;;;20.00;71.60;21.20;100999.00;;;;5090516;28;20691;-47
2022/10/28 03:39:05;;;;;;;12.00;4.23;;;20.00;71.70;21.10;100992.00;;;;5090380;28;20719;-47
2022/10/28 03:41:31;;;;;;;10.77;3.93;;;20.00;71.70;21.20;100991.00;;;;5090399;28;20173;-46
2022/10/28 03:43:57;;;;;;;7.23;3.90;;;20.00;71.90;21.20;100997.00;;;;5090035;28;20169;-47
2022/10/28 03:46:22;;;;;;;7.73;4.07;;;20.00;71.80;21.20;101000.00;;;;5090922;28;20172;-48
2022/10/28 03:48:48;;;;;;;9.13;4.23;;;20.00;71.70;21.10;100995.00;;;;5091051;28;20180;-47
2022/10/28 03:51:14;;;;;;;6.67;3.97;;;20.00;71.60;21.10;100995.00;;;;5091128;28;20192;-47
2022/10/28 03:53:39;;;;;;;9.67;4.33;;;20.00;71.70;21.10;100990.00;;;;5091235;28;20180;-47
2022/10/28 03:56:05;;;;;;;9.97;3.87;;;20.00;71.70;21.20;100982.00;;;;5090085;28;20210;-47
2022/10/28 03:58:31;;;;;;;8.47;3.97;;;20.00;71.70;21.10;100983.00;;;;5091269;28;20238;-48
2022/10/28 04:00:57;;;;;;;8.57;4.23;;;20.00;71.70;21.10;100977.00;;;;5090827;28;20233;-47
2022/10/28 04:03:23;;;;;;;7.90;3.83;;;20.00;71.50;21.10;100965.00;;;;5090630;28;20184;-47
2022/10/28 04:05:49;;;;;;;7.67;4.23;;;20.00;71.60;21.10;100958.00;;;;5090815;28;20697;-47
2022/10/28 04:08:15;;;;;;;9.60;4.20;;;20.00;71.50;21.10;100959.00;;;;5091250;28;20256;-47
2022/10/28 04:10:42;;;;;;;7.23;4.33;;;20.00;71.30;21.10;100960.00;;;;5091606;28;20673;-46
2022/10/28 04:13:08;;;;;;;10.30;4.53;;;20.00;71.20;21.10;100961.00;;;;5091004;28;20177;-54
2022/10/28 04:15:34;;;;;;;8.10;3.93;;;20.00;71.20;21.10;100949.00;;;;5091399;28;20191;-46
2022/10/28 04:18:00;;;;;;;8.53;4.47;;;20.00;71.20;21.10;100956.00;;;;5091259;28;20175;-47
2022/10/28 04:20:25;;;;;;;10.03;4.07;;;20.00;71.20;21.10;100957.00;;;;5091077;28;20218;-46
2022/10/28 04:22:53;;;;;;;9.17;4.20;;;20.00;71.30;21.10;100970.00;;;;5090282;28;20638;-46
2022/10/28 04:25:22;;;;;;;8.80;4.80;;;20.00;71.30;21.10;100974.00;;;;5090451;28;20848;-46
2022/10/28 04:27:48;;;;;;;10.07;3.97;;;20.00;71.50;21.10;100970.00;;;;5089718;28;20321;-47
2022/10/28 04:30:14;;;;;;;7.53;4.20;;;20.00;71.60;21.10;100979.00;;;;5089009;28;20486;-48
2022/10/28 04:32:40;;;;;;;6.87;4.00;;;19.90;71.40;21.10;100968.00;;;;5092607;28;20180;-47
2022/10/28 04:35:07;;;;;;;7.23;3.97;;;20.00;71.60;21.10;100979.00;;;;5094747;28;20179;-46
2022/10/28 04:37:32;;;;;;;7.83;4.10;;;19.90;71.60;21.10;100979.00;;;;5098883;28;20212;-47
2022/10/28 04:39:58;;;;;;;6.60;4.23;;;20.00;71.90;21.10;100975.00;;;;5098048;28;20697;-47
2022/10/28 04:42:24;;;;;;;6.87;4.27;;;19.90;71.90;21.10;100975.00;;;;5091762;28;20169;-47
2022/10/28 04:44:49;;;;;;;7.77;4.00;;;19.90;71.90;21.10;100917.00;;;;5089514;28;20283;-46
2022/10/28 04:47:16;;;;;;;10.47;4.73;;;19.90;72.00;21.10;100982.00;;;;5089780;28;20172;-47
2022/10/28 04:49:41;;;;;;;7.50;4.30;;;20.00;72.20;21.10;100931.00;;;;5089741;28;20202;-47
2022/10/28 04:52:07;;;;;;;8.77;4.20;;;20.00;72.00;21.10;100918.00;;;;5089821;28;20176;-47
2022/10/28 04:54:33;;;;;;;9.23;4.17;;;20.00;72.00;21.10;100982.00;;;;5088894;28;20336;-46
2022/10/28 04:56:59;;;;;;;6.70;4.37;;;20.00;72.00;21.10;100988.00;;;;5089661;28;20641;-47
2022/10/28 04:59:24;;;;;;;9.17;4.07;;;19.90;72.00;21.10;100985.00;;;;5089625;28;20203;-49
2022/10/28 05:01:50;;;;;;;7.73;4.10;;;19.90;72.00;21.10;100995.00;;;;5090776;28;20702;-47
2022/10/28 05:04:16;;;;;;;8.00;4.57;;;20.00;72.00;21.10;100996.00;;;;5089483;28;20253;-48
2022/10/28 05:06:42;;;;;;;5.93;4.00;;;19.90;71.90;21.10;100994.00;;;;5090531;28;20165;-47
2022/10/28 05:09:07;;;;;;;6.77;4.03;;;19.90;71.90;21.10;100993.00;;;;5088132;28;20176;-47
2022/10/28 05:11:33;;;;;;;15.50;4.40;;;19.90;71.90;21.00;100991.00;;;;5089335;28;20248;-48
2022/10/28 05:13:59;;;;;;;8.10;4.50;;;19.90;71.70;21.10;100996.00;;;;5088711;28;20180;-47
2022/10/28 05:16:24;;;;;;;7.47;4.20;;;19.90;71.90;21.00;100985.00;;;;5089331;28;20690;-47
2022/10/28 05:18:50;;;;;;;7.20;4.20;;;19.90;72.60;21.00;100985.00;;;;5088566;28;20233;-47
2022/10/28 05:21:16;;;;;;;8.83;4.23;;;19.90;71.90;21.00;100985.00;;;;5089528;28;20189;-47
2022/10/28 05:23:42;;;;;;;11.90;4.30;;;19.90;71.60;21.00;100990.00;;;;5089303;28;20169;-48
2022/10/28 05:26:07;;;;;;;8.07;4.30;;;19.90;71.80;21.00;100986.00;;;;5090361;28;20266;-48
2022/10/28 05:28:33;;;;;;;7.10;3.93;;;19.90;71.70;21.00;100989.00;;;;5089825;28;20175;-48
2022/10/28 05:30:59;;;;;;;8.50;4.07;;;19.90;72.70;21.00;100990.00;;;;5088869;28;20195;-47
2022/10/28 05:33:24;;;;;;;10.03;4.20;;;19.90;71.60;21.00;100986.00;;;;5088669;28;20665;-48
2022/10/28 05:35:50;;;;;;;7.20;4.20;;;19.90;71.70;21.00;100980.00;;;;5089489;28;20188;-48
2022/10/28 05:38:16;;;;;;;8.90;4.10;;;19.90;71.70;21.00;100989.00;;;;5089837;28;20176;-47
2022/10/28 05:40:42;;;;;;;7.47;3.97;;;19.90;71.80;21.00;100991.00;;;;5088793;28;20196;-47
2022/10/28 05:43:08;;;;;;;8.70;4.00;;;19.90;71.70;21.00;100992.00;;;;5088805;28;20241;-47
2022/10/28 05:45:34;;;;;;;10.90;3.80;;;19.90;71.70;20.90;101004.00;;;;5088727;28;20204;-47
2022/10/28 05:48:00;;;;;;;8.27;4.20;;;19.80;71.70;20.90;100994.00;;;;5091843;28;20176;-48
2022/10/28 05:50:26;;;;;;;6.83;3.63;;;19.80;71.70;21.00;100996.00;;;;5097252;28;20189;-47
2022/10/28 05:52:54;;;;;;;9.07;4.03;;;19.80;71.80;21.00;101014.00;;;;5089158;28;20552;-47
2022/10/28 05:55:21;;;;;;;7.93;4.17;;;19.80;71.80;21.00;101008.00;;;;5088873;28;20182;-48
2022/10/28 05:57:48;;;;;;;9.87;4.23;;;19.80;71.90;21.00;101004.00;;;;5088903;28;20222;-48
2022/10/28 06:00:13;;;;;;;7.33;4.40;;;19.80;71.80;21.00;101005.00;;;;5088378;28;20199;-48
2022/10/28 06:02:40;;;;;;;8.73;4.20;;;19.80;71.80;21.00;101008.00;;;;5088520;28;20176;-47
2022/10/28 06:05:06;;;;;;;8.23;4.30;;;19.80;71.80;20.90;101011.00;;;;5088779;28;20613;-48
2022/10/28 06:07:33;;;;;;;10.40;4.43;;;19.80;71.80;20.90;101006.00;;;;5093161;28;20298;-47
2022/10/28 06:09:59;;;;;;;8.07;4.20;;;19.90;71.90;20.90;101012.00;;;;5090175;28;20239;-48
2022/10/28 06:12:25;;;;;;;8.83;4.27;;;19.80;71.70;20.90;101004.00;;;;5088558;28;20172;-48
2022/10/28 06:14:51;;;;;;;8.13;4.30;;;19.80;71.60;20.90;101003.00;;;;5088251;28;20183;-48
2022/10/28 06:17:17;;;;;;;8.53;4.53;;;19.80;71.70;20.90;101007.00;;;;5088583;28;20179;-47
2022/10/28 06:19:42;;;;;;;8.43;4.57;;;19.80;71.50;20.90;101018.00;;;;5088568;28;20200;-48
2022/10/28 06:22:08;;;;;;;7.07;3.90;;;19.80;71.70;20.90;101013.00;;;;5088382;28;20180;-47
2022/10/28 06:24:34;;;;;;;9.00;4.20;;;19.80;71.70;20.90;101007.00;;;;5087742;28;20652;-46
2022/10/28 06:26:59;;;;;;;8.87;4.70;;;19.80;71.70;20.90;101008.00;;;;5088708;28;20207;-47
2022/10/28 06:29:25;;;;;;;8.80;4.17;;;19.80;71.80;20.80;101007.00;;;;5088209;28;20196;-47
2022/10/28 06:31:51;;;;;;;10.93;4.50;;;19.80;71.70;20.80;101000.00;;;;5088581;28;20238;-46
2022/10/28 06:34:17;;;;;;;7.50;4.30;;;19.80;71.70;20.80;101004.00;;;;5087755;28;20161;-47
2022/10/28 06:36:42;;;;;;;7.73;4.17;;;19.70;71.70;20.80;101012.00;;;;5088224;28;20258;-48
2022/10/28 06:39:08;;;;;;;11.53;4.73;;;19.70;71.50;20.80;101020.00;;;;5088181;28;20166;-47
2022/10/28 06:41:34;;;;;;;8.47;4.47;;;19.80;71.50;20.80;101018.00;;;;5088145;28;20171;-51
2022/10/28 06:44:00;;;;;;;10.37;4.37;;;19.70;71.50;20.80;101019.00;;;;5088001;28;20574;-47
2022/10/28 06:46:25;;;;;;;7.93;4.30;;;19.70;71.50;20.80;101018.00;;;;5088760;28;20169;-48
2022/10/28 06:48:55;;;;;;;10.30;4.60;;;19.80;71.70;20.80;101015.00;;;;5088697;28;20180;-47
2022/10/28 06:51:22;;;;;;;6.80;4.10;;;19.80;71.50;20.80;101003.00;;;;5089585;28;20275;-46
2022/10/28 06:53:49;;;;;;;9.13;4.07;;;19.70;71.40;20.80;101022.00;;;;5091465;28;20244;-48
2022/10/28 06:56:14;;;;;;;9.67;4.40;;;19.70;71.40;20.80;101026.00;;;;5092328;28;20155;-47
2022/10/28 06:58:40;;;;;;;7.70;4.27;;;19.70;71.50;20.80;101022.00;;;;5095834;28;20196;-47
2022/10/28 07:01:06;;;;;;;9.53;4.27;;;19.70;71.50;20.80;101023.00;;;;5098581;28;20301;-47
2022/10/28 07:03:32;;;;;;;8.23;4.20;;;19.70;71.50;20.80;101027.00;;;;5093323;28;20189;-46
2022/10/28 07:05:58;;;;;;;9.83;4.13;;;19.70;71.50;20.70;101025.00;;;;5094221;28;20192;-47
2022/10/28 07:08:23;;;;;;;8.20;4.20;;;19.70;71.40;20.80;101021.00;;;;5101335;28;20168;-47
2022/10/28 07:10:54;;;;;;;10.37;4.40;;;19.70;71.40;20.70;101028.00;;;;5096368;28;20659;-47
2022/10/28 07:13:19;;;;;;;9.53;4.70;;;19.70;71.70;20.70;101041.00;;;;5091312;28;20170;-47
2022/10/28 07:15:53;;;;;;;8.80;4.00;;;19.70;71.50;20.70;101026.00;;;;5091511;28;20186;-47
2022/10/28 07:18:20;;;;;;;9.27;4.77;;;19.70;71.70;20.70;101027.00;;;;5091622;28;20160;-47
2022/10/28 07:20:45;;;;;;;7.53;4.50;;;19.70;71.70;20.70;101032.00;;;;5091554;28;20195;-47
2022/10/28 07:23:11;;;;;;;8.80;4.60;;;19.70;71.80;20.70;101036.00;;;;5090814;28;20793;-47
2022/10/28 07:25:37;;;;;;;6.40;4.00;;;19.70;72.50;20.70;101036.00;;;;5089068;28;20527;-48
2022/10/28 07:28:03;;;;;;;8.40;4.13;;;19.70;71.70;20.70;101038.00;;;;5091567;28;20167;-48
2022/10/28 07:30:28;;;;;;;8.67;4.20;;;19.70;71.70;20.70;101039.00;;;;5091365;28;20188;-46
2022/10/28 07:32:55;;;;;;;8.67;4.20;;;19.70;71.70;20.70;101042.00;;;;5091201;28;20259;-48
2022/10/28 07:35:21;;;;;;;9.60;4.23;;;19.70;71.70;20.70;101037.00;;;;5090673;28;20569;-47
2022/10/28 07:37:47;;;;;;;10.83;4.70;;;19.80;71.80;20.80;101039.00;;;;5090750;28;20183;-47
2022/10/28 07:40:12;;;;;;;9.50;4.67;;;19.70;71.70;20.70;101032.00;;;;5090753;28;20209;-47
2022/10/28 07:42:38;;;;;;;10.50;4.70;;;19.70;71.80;20.80;101028.00;;;;5091022;28;20243;-47
2022/10/28 07:45:05;;;;;;;10.57;4.30;;;19.80;72.20;20.80;101023.00;;;;5090891;28;20283;-48
2022/10/28 07:47:30;;;;;;;10.23;5.17;;;19.80;72.10;20.80;101032.00;;;;5090357;28;20196;-50
2022/10/28 07:49:56;;;;;;;8.33;4.23;;;19.80;72.20;20.80;101036.00;;;;5091425;28;20211;-47
2022/10/28 07:52:22;;;;;;;12.00;4.57;;;19.80;72.10;20.80;101037.00;;;;5091626;28;20857;-47
2022/10/28 07:54:49;;;;;;;8.50;4.60;;;19.70;72.00;20.80;101037.00;;;;5090952;28;20222;-47
2022/10/28 07:57:15;;;;;;;8.17;4.40;;;19.70;72.10;20.80;101042.00;;;;5091287;28;20171;-47
2022/10/28 07:59:40;;;;;;;10.00;4.63;;;19.70;72.10;20.80;101054.00;;;;5091054;28;20663;-48
2022/10/28 08:02:06;;;;;;;8.77;4.20;;;19.80;72.20;20.80;101061.00;;;;5091069;28;20175;-48
2022/10/28 08:04:32;;;;;;;9.50;4.40;;;19.70;72.10;20.80;101060.00;;;;5090032;28;20192;-47
2022/10/28 08:06:58;;;;;;;7.50;4.10;;;19.70;72.10;20.80;101046.00;;;;5026967;28;20183;-48
2022/10/28 08:09:24;;;;;;;8.07;4.30;;;19.80;72.60;20.80;101053.00;;;;5092634;28;20201;-48
2022/10/28 08:11:49;;;;;;;8.70;4.60;;;19.70;72.10;20.80;101054.00;;;;5105189;28;20255;-47
2022/10/28 08:14:15;;;;;;;8.70;4.60;;;19.80;72.30;20.80;101054.00;;;;5095844;28;20239;-46
2022/10/28 08:16:41;;;;;;;7.73;4.53;;;19.80;72.70;20.80;101045.00;;;;5090504;28;20266;-47
2022/10/28 08:19:07;;;;;;;9.83;4.60;;;19.80;73.40;20.80;101060.00;;;;5090878;28;20180;-47
2022/10/28 08:21:32;;;;;;;13.10;5.23;;;19.80;73.60;20.80;101049.00;;;;5088243;28;20192;-48
2022/10/28 08:23:58;;;;;;;13.17;4.90;;;19.80;73.80;20.80;101043.00;;;;5090309;28;20179;-47
2022/10/28 08:26:24;;;;;;;19.17;5.40;;;19.90;74.00;20.90;101046.00;;;;5090114;28;20187;-50
2022/10/28 08:28:49;;;;;;;10.20;4.93;;;19.90;73.70;20.90;101038.00;;;;5089632;28;20184;-47
2022/10/28 08:31:16;;;;;;;8.67;4.83;;;19.90;73.70;20.90;101032.00;;;;5089880;28;20773;-48
2022/10/28 08:33:44;;;;;;;12.87;4.83;;;19.90;73.90;20.90;101048.00;;;;5089862;28;20172;-48
2022/10/28 08:36:14;;;;;;;9.17;4.40;;;19.90;73.90;20.90;101036.00;;;;5090101;28;20189;-47
2022/10/28 08:38:42;;;;;;;10.73;5.00;;;19.90;73.90;20.90;101039.00;;;;5090094;28;20173;-47
2022/10/28 08:41:30;;;;;;;11.07;4.80;;;19.90;73.90;20.90;101040.00;;;;5089595;28;20230;-47
2022/10/28 08:44:26;;;;;;;8.13;4.43;;;19.90;73.80;20.90;101029.00;;;;5088988;28;20541;-46
2022/10/28 08:47:16;;;;;;;9.53;4.53;;;19.90;73.70;20.90;101046.00;;;;5088495;28;20172;-48
2022/10/28 08:49:41;;;;;;;7.77;4.10;;;19.90;73.70;20.90;101048.00;;;;5089698;28;20200;-48
2022/10/28 08:52:23;;;;;;;11.67;4.77;;;19.90;73.60;20.90;101035.00;;;;5088785;28;20184;-47
2022/10/28 08:55:13;;;;;;;9.00;4.93;;;19.90;73.70;20.90;101022.00;;;;5088515;28;20236;-47
2022/10/28 08:58:19;;;;;;;10.33;4.80;;;19.90;73.50;20.90;101040.00;;;;5089094;28;20244;-47
2022/10/28 09:00:48;;;;;;;8.77;4.80;;;19.90;73.50;20.90;101039.00;;;;5088652;28;20722;-46
2022/10/28 09:03:21;;;;;;;9.87;4.33;;;19.90;73.30;20.90;101034.00;;;;5089431;28;20176;-47
2022/10/28 09:05:49;;;;;;;9.87;4.70;;;19.90;73.30;20.90;101028.00;;;;4980121;28;20200;-47
2022/10/28 09:08:22;;;;;;;9.23;4.47;;;19.90;73.30;20.90;101037.00;;;;5088493;28;20248;-47
2022/10/28 09:11:12;;;;;;;8.30;3.77;;;19.90;73.20;20.90;101031.00;;;;5088434;28;20207;-51
2022/10/28 09:14:18;;;;;;;9.00;4.70;;;19.90;73.20;20.90;101044.00;;;;5066450;28;20280;-48
2022/10/28 09:16:51;;;;;;;8.00;4.10;;;19.90;73.20;20.90;101034.00;;;;5088042;28;20157;-47
2022/10/28 09:19:49;;;;;;;7.03;4.40;;;19.90;73.10;20.90;101029.00;;;;5087463;28;20176;-48
2022/10/28 09:22:21;;;;;;;9.80;4.80;;;19.90;73.40;20.90;101031.00;;;;5091713;28;20645;-47
2022/10/28 09:25:29;;;;;;;9.00;4.83;;;20.00;73.90;21.00;101031.00;;;;5087792;28;20240;-47
2022/10/28 09:28:36;;;;;;;10.73;4.30;;;20.00;73.20;21.00;101019.00;;;;5077703;28;20184;-47
2022/10/28 09:31:13;;;;;;;12.80;4.67;;;20.00;73.10;21.00;101019.00;;;;5093889;28;20294;-46
2022/10/28 09:33:57;;;;;;;10.87;4.50;;;20.00;72.90;21.00;101017.00;;;;5096437;28;20175;-47
2022/10/28 09:36:29;;;;;;;10.07;4.93;;;20.00;73.00;21.00;101025.00;;;;5094146;28;20171;-47
2022/10/28 09:38:57;;;;;;;9.30;4.30;;;20.10;72.90;21.00;101022.00;;;;5088443;28;20633;-46
2022/10/28 09:41:26;;;;;;;8.67;4.43;;;20.10;73.20;21.10;101027.00;;;;5091961;28;20686;-47
2022/10/28 09:44:06;;;;;;;10.53;4.53;;;20.10;72.90;21.10;101027.00;;;;5097327;28;20179;-46
2022/10/28 09:46:32;;;;;;;14.23;4.90;;;20.20;72.30;21.10;101024.00;;;;5088052;28;20189;-46
2022/10/28 09:49:03;;;;;;;10.43;4.70;;;20.20;72.30;21.10;101012.00;;;;5087846;28;20164;-46
2022/10/28 09:51:36;;;;;;;11.67;4.90;;;20.20;72.30;21.10;101035.00;;;;5085500;28;20189;-47
2022/10/28 09:54:03;;;;;;;8.90;4.53;;;20.30;72.20;21.20;101034.00;;;;5085389;28;20189;-46
2022/10/28 09:56:29;;;;;;;11.73;4.60;;;20.30;72.30;21.20;101035.00;;;;5088858;28;20169;-46
2022/10/28 09:58:58;;;;;;;15.70;5.00;;;20.30;72.30;21.20;101043.00;;;;5070848;28;20618;-46
2022/10/28 10:01:24;;;;;;;16.43;4.70;;;20.40;71.70;21.20;101042.00;;;;5070869;28;20551;-47
2022/10/28 10:03:50;;;;;;;8.17;4.57;;;20.40;72.10;21.30;101030.00;;;;5087267;28;20252;-47
2022/10/28 10:06:26;;;;;;;11.37;4.53;;;20.40;71.90;21.30;101033.00;;;;5039114;28;20200;-46
2022/10/28 10:08:55;;;;;;;7.53;4.27;;;20.40;72.10;21.30;101038.00;;;;5087507;28;20187;-46
2022/10/28 10:11:42;;;;;;;9.43;4.73;;;20.50;71.80;21.40;101030.00;;;;5087088;28;20257;-46
2022/10/28 10:14:17;;;;;;;9.77;4.30;;;20.60;71.70;21.40;101031.00;;;;5087343;28;20176;-46
2022/10/28 10:16:55;;;;;;;10.33;4.50;;;20.50;71.70;21.40;101040.00;;;;5087363;28;20191;-45
2022/10/28 10:19:21;;;;;;;10.80;4.53;;;20.50;71.40;21.40;101034.00;;;;5087307;28;20200;-47
2022/10/28 10:21:48;;;;;;;10.30;4.70;;;20.60;71.50;21.40;100962.00;;;;5086586;28;20172;-47
2022/10/28 10:24:33;;;;;;;11.57;4.87;;;20.50;71.50;21.40;101036.00;;;;5088466;28;20251;-48
2022/10/28 10:27:08;;;;;;;9.30;4.90;;;20.60;71.60;21.50;101047.00;;;;5091123;28;20206;-48
2022/10/28 10:29:33;;;;;;;10.13;4.70;;;20.60;71.50;21.40;101030.00;;;;5091648;28;20204;-47
2022/10/28 10:32:14;;;;;;;12.27;4.83;;;20.60;71.80;21.50;101028.00;;;;5091162;28;20169;-47
2022/10/28 10:35:00;;;;;;;8.87;4.63;;;20.60;71.90;21.50;101028.00;;;;5092415;28;20161;-47
2022/10/28 10:37:26;;;;;;;8.23;4.43;;;20.60;71.80;21.50;101028.00;;;;5091302;28;20550;-47
2022/10/28 10:40:19;;;;;;;11.50;4.93;;;20.70;71.60;21.50;101026.00;;;;5091224;28;20200;-47
2022/10/28 10:42:46;;;;;;;8.87;4.73;;;20.70;71.40;21.50;101010.00;;;;5089408;28;20165;-47
2022/10/28 10:45:14;;;;;;;13.67;4.90;;;20.70;71.30;21.50;101013.00;;;;5091922;28;20230;-47
2022/10/28 10:47:40;;;;;;;12.00;5.10;;;20.70;71.10;21.50;101022.00;;;;5090335;28;20657;-47
2022/10/28 10:50:21;;;;;;;12.27;5.03;;;20.80;71.10;21.40;101023.00;;;;5088265;28;20208;-47
2022/10/28 10:52:51;;;;;;;11.70;5.33;;;20.90;71.20;21.60;101008.00;;;;5091601;28;20188;-48
2022/10/28 10:55:29;;;;;;;13.00;4.70;;;20.90;72.10;21.70;101013.00;;;;5090607;28;20180;-48
2022/10/28 10:57:55;;;;;;;10.00;4.37;;;21.00;71.20;21.70;101007.00;;;;5090708;28;20183;-49
2022/10/28 11:00:22;;;;;;;13.53;5.20;;;21.00;71.30;21.70;101010.00;;;;5091905;28;20201;-48
2022/10/28 11:02:47;;;;;;;11.70;5.20;;;21.00;70.90;21.70;100996.00;;;;5092308;28;20162;-48
2022/10/28 11:05:20;;;;;;;11.43;4.80;;;21.00;70.90;21.80;101014.00;;;;5042280;28;20984;-48